Time;durP1;ratioP1;P1;durP2;ratioP2;P2;SDS_P1;SDS_P2;PMS_P1;PMS_P2;Temp;Humidity;BMP_temperature;BMP_pressure;BME280_temperature;BME280_humidity;BME280_pressure;Samples;Min_cycle;Max_cycle;Signal;HPM_P1;HPM_P2
2023/07/12 00:01:08;;;;;;;4.13;3.67;;;;;;;;;;4930869;29;20200;-73
2023/07/12 00:03:33;;;;;;;5.90;4.00;;;;;;;;;;4948127;28;20180;-72
2023/07/12 00:05:59;;;;;;;3.63;3.20;;;;;;;;;;4947807;28;20282;-73
2023/07/12 00:08:25;;;;;;;4.37;3.67;;;;;;;;;;4949492;28;20186;-73
2023/07/12 00:10:51;;;;;;;4.07;3.70;;;;;;;;;;4953234;28;20180;-72
2023/07/12 00:13:17;;;;;;;4.20;3.77;;;;;;;;;;4933805;29;20226;-72
2023/07/12 00:15:43;;;;;;;5.60;3.30;;;;;;;;;;4930105;29;20214;-73
2023/07/12 00:18:19;;;;;;;4.87;3.70;;;;;;;;;;4937340;29;20187;-72
2023/07/12 00:20:45;;;;;;;4.73;3.53;;;;;;;;;;4930979;29;20183;-72
2023/07/12 00:23:11;;;;;;;4.13;3.73;;;;;;;;;;4932963;29;20187;-72
2023/07/12 00:25:37;;;;;;;4.17;3.80;;;;;;;;;;4931594;29;20243;-72
2023/07/12 00:28:02;;;;;;;4.20;3.60;;;;;;;;;;4934996;29;20180;-72
2023/07/12 00:30:29;;;;;;;4.33;3.70;;;;;;;;;;4928730;29;20169;-72
2023/07/12 00:32:55;;;;;;;4.00;3.57;;;;;;;;;;4931403;29;20188;-72
2023/07/12 00:35:22;;;;;;;4.20;3.73;;;;;;;;;;4949032;28;20190;-72
2023/07/12 00:37:52;;;;;;;4.87;4.00;;;;;;;;;;4930766;29;20339;-72
2023/07/12 00:40:36;;;;;;;5.13;4.53;;;;;;;;;;4932720;29;20183;-72
2023/07/12 00:43:20;;;;;;;4.40;4.00;;;;;;;;;;4930337;29;20195;-72
2023/07/12 00:45:47;;;;;;;4.43;4.03;;;;;;;;;;4927919;29;20250;-72
2023/07/12 00:48:13;;;;;;;5.80;4.47;;;;;;;;;;4928309;29;20198;-72
2023/07/12 00:50:38;;;;;;;6.53;3.90;;;;;;;;;;4925828;29;20184;-73
2023/07/12 00:53:04;;;;;;;6.03;3.77;;;;;;;;;;4944119;29;20235;-72
2023/07/12 00:55:48;;;;;;;5.00;4.00;;;;;;;;;;4929051;29;20194;-72
2023/07/12 00:58:13;;;;;;;3.57;3.27;;;;;;;;;;4928591;29;20178;-72
2023/07/12 01:00:38;;;;;;;4.63;3.40;;;;;;;;;;4946745;28;20277;-73
2023/07/12 01:03:04;;;;;;;4.23;3.33;;;;;;;;;;4940408;29;20218;-72
2023/07/12 01:05:30;;;;;;;4.43;3.67;;;;;;;;;;4931964;29;20214;-72
2023/07/12 01:07:56;;;;;;;4.00;3.60;;;;;;;;;;4930074;29;20199;-73
2023/07/12 01:10:21;;;;;;;5.87;3.90;;;;;;;;;;4932727;29;20187;-73
2023/07/12 01:12:46;;;;;;;4.33;3.63;;;;;;;;;;4932911;29;20242;-72
2023/07/12 01:15:11;;;;;;;5.30;3.57;;;;;;;;;;4925008;29;20220;-72
2023/07/12 01:17:37;;;;;;;4.93;4.43;;;;;;;;;;4927822;29;20182;-73
2023/07/12 01:20:03;;;;;;;4.70;3.93;;;;;;;;;;4931958;29;20187;-73
2023/07/12 01:22:29;;;;;;;6.67;4.17;;;;;;;;;;4947669;29;20191;-73
2023/07/12 01:24:54;;;;;;;5.40;3.90;;;;;;;;;;4924486;29;20336;-73
2023/07/12 01:27:21;;;;;;;7.10;4.40;;;;;;;;;;4929076;29;20193;-73
2023/07/12 01:29:46;;;;;;;6.47;3.70;;;;;;;;;;4929010;29;20207;-73
2023/07/12 01:32:12;;;;;;;6.87;3.40;;;;;;;;;;4930218;29;20179;-72
2023/07/12 01:34:37;;;;;;;4.40;4.00;;;;;;;;;;4934138;29;20175;-73
2023/07/12 01:37:04;;;;;;;5.27;3.83;;;;;;;;;;4931558;29;20179;-73
2023/07/12 01:39:30;;;;;;;5.13;4.40;;;;;;;;;;4939396;29;20179;-73
2023/07/12 01:41:55;;;;;;;5.90;4.00;;;;;;;;;;4933453;29;20278;-73
2023/07/12 01:44:20;;;;;;;4.27;3.60;;;;;;;;;;4930593;29;20235;-73
2023/07/12 01:46:45;;;;;;;4.07;3.67;;;;;;;;;;4944668;29;20211;-73
2023/07/12 01:49:11;;;;;;;5.43;3.80;;;;;;;;;;4933882;29;20272;-73
2023/07/12 01:51:37;;;;;;;4.10;3.60;;;;;;;;;;4938813;29;20191;-73
2023/07/12 01:54:03;;;;;;;4.50;3.87;;;;;;;;;;4934968;29;20279;-73
2023/07/12 01:56:28;;;;;;;6.03;4.50;;;;;;;;;;4950807;28;20206;-73
2023/07/12 01:58:53;;;;;;;4.93;4.03;;;;;;;;;;4932063;29;20218;-73
2023/07/12 02:01:19;;;;;;;5.90;4.00;;;;;;;;;;4937205;29;20240;-73
2023/07/12 02:03:44;;;;;;;4.87;3.83;;;;;;;;;;4924770;29;20268;-73
2023/07/12 02:06:10;;;;;;;6.30;4.40;;;;;;;;;;4948864;28;20211;-73
2023/07/12 02:08:35;;;;;;;4.47;3.87;;;;;;;;;;4938154;29;20183;-73
2023/07/12 02:11:00;;;;;;;4.47;3.87;;;;;;;;;;4934610;29;20272;-73
2023/07/12 02:13:25;;;;;;;4.73;4.30;;;;;;;;;;4934708;29;20198;-74
2023/07/12 02:15:50;;;;;;;5.40;4.03;;;;;;;;;;4931370;29;20254;-73
2023/07/12 02:18:16;;;;;;;5.50;4.57;;;;;;;;;;4934480;29;20186;-73
2023/07/12 02:20:41;;;;;;;7.93;4.63;;;;;;;;;;4936874;29;20187;-73
2023/07/12 02:23:07;;;;;;;6.47;4.43;;;;;;;;;;4933462;29;20189;-73
2023/07/12 02:25:33;;;;;;;6.23;4.57;;;;;;;;;;4935750;29;20236;-73
2023/07/12 02:27:58;;;;;;;5.20;4.40;;;;;;;;;;4934261;29;20179;-73
2023/07/12 02:30:24;;;;;;;5.57;4.23;;;;;;;;;;4943532;28;20271;-73
2023/07/12 02:32:50;;;;;;;4.73;4.20;;;;;;;;;;4929177;29;20266;-73
2023/07/12 02:35:16;;;;;;;5.37;4.30;;;;;;;;;;4950924;29;20284;-73
2023/07/12 02:37:41;;;;;;;6.73;4.30;;;;;;;;;;4933688;29;20183;-73
2023/07/12 02:40:07;;;;;;;5.37;4.50;;;;;;;;;;4935292;29;20189;-73
2023/07/12 02:42:32;;;;;;;5.07;3.90;;;;;;;;;;4934987;29;20188;-73
2023/07/12 02:44:58;;;;;;;6.37;4.60;;;;;;;;;;4932924;29;20218;-73
2023/07/12 02:47:23;;;;;;;5.60;4.87;;;;;;;;;;4927983;29;20264;-73
2023/07/12 02:49:48;;;;;;;7.27;5.00;;;;;;;;;;4932606;29;20218;-73
2023/07/12 02:52:14;;;;;;;6.57;4.40;;;;;;;;;;4933646;29;20189;-73
2023/07/12 02:54:39;;;;;;;6.43;4.43;;;;;;;;;;4935795;29;20208;-73
2023/07/12 02:57:09;;;;;;;5.40;4.00;;;;;;;;;;4934075;29;20185;-73
2023/07/12 02:59:34;;;;;;;7.27;4.93;;;;;;;;;;4922048;29;20180;-73
2023/07/12 03:01:59;;;;;;;4.53;4.13;;;;;;;;;;4933177;29;20175;-73
2023/07/12 03:04:24;;;;;;;7.80;5.10;;;;;;;;;;4940115;29;20189;-73
2023/07/12 03:06:49;;;;;;;5.17;4.50;;;;;;;;;;4940852;29;20225;-73
2023/07/12 03:09:15;;;;;;;5.57;4.87;;;;;;;;;;4924095;29;20181;-73
2023/07/12 03:11:43;;;;;;;5.13;4.63;;;;;;;;;;4931004;29;20185;-73
2023/07/12 03:14:08;;;;;;;10.10;5.40;;;;;;;;;;4927789;29;20198;-73
2023/07/12 03:16:33;;;;;;;5.90;5.07;;;;;;;;;;4929305;29;20200;-72
2023/07/12 03:18:59;;;;;;;8.33;5.13;;;;;;;;;;4932972;29;20352;-73
2023/07/12 03:21:24;;;;;;;10.07;5.13;;;;;;;;;;4952988;28;20276;-73
2023/07/12 03:23:49;;;;;;;7.03;5.23;;;;;;;;;;4936759;29;20272;-73
2023/07/12 03:26:15;;;;;;;5.17;4.60;;;;;;;;;;4950119;29;20272;-73
2023/07/12 03:28:40;;;;;;;6.33;5.53;;;;;;;;;;4952075;29;20184;-73
2023/07/12 03:31:15;;;;;;;8.60;6.00;;;;;;;;;;4936854;28;20178;-72
2023/07/12 03:33:42;;;;;;;5.43;4.80;;;;;;;;;;4951281;28;20184;-73
2023/07/12 03:36:07;;;;;;;8.50;5.47;;;;;;;;;;4938668;29;20181;-72
2023/07/12 03:38:32;;;;;;;7.37;5.93;;;;;;;;;;4937561;29;20183;-73
2023/07/12 03:41:01;;;;;;;6.30;5.37;;;;;;;;;;4941893;28;20187;-72
2023/07/12 03:43:26;;;;;;;5.77;5.27;;;;;;;;;;4942289;29;20202;-72
2023/07/12 03:45:52;;;;;;;8.70;5.70;;;;;;;;;;4935135;28;20201;-72
2023/07/12 03:48:17;;;;;;;8.13;5.40;;;;;;;;;;4945088;28;20204;-72
2023/07/12 03:50:43;;;;;;;6.63;5.70;;;;;;;;;;4935995;29;20243;-73
2023/07/12 03:53:08;;;;;;;6.83;5.57;;;;;;;;;;4946713;28;20237;-73
2023/07/12 03:55:38;;;;;;;7.00;5.67;;;;;;;;;;4952828;29;20208;-73
2023/07/12 03:58:04;;;;;;;6.07;5.47;;;;;;;;;;4934918;28;20211;-73
2023/07/12 04:00:29;;;;;;;7.93;5.97;;;;;;;;;;4934191;29;20181;-72
2023/07/12 04:02:54;;;;;;;9.03;6.63;;;;;;;;;;4936701;28;20193;-73
2023/07/12 04:05:19;;;;;;;6.50;5.90;;;;;;;;;;4937991;29;20221;-73
2023/07/12 04:07:45;;;;;;;6.50;5.90;;;;;;;;;;4936191;29;20216;-73
2023/07/12 04:10:10;;;;;;;6.30;5.70;;;;;;;;;;4936006;29;20237;-72
2023/07/12 04:12:35;;;;;;;8.43;6.27;;;;;;;;;;4935153;28;20235;-73
2023/07/12 04:15:00;;;;;;;8.30;6.23;;;;;;;;;;4951441;28;20191;-72
2023/07/12 04:17:26;;;;;;;7.80;5.77;;;;;;;;;;4934966;29;20196;-73
2023/07/12 04:19:51;;;;;;;8.13;5.97;;;;;;;;;;4936450;29;20277;-73
2023/07/12 04:22:16;;;;;;;6.87;6.13;;;;;;;;;;4932458;29;20197;-73
2023/07/12 04:24:41;;;;;;;6.60;5.87;;;;;;;;;;4946628;28;20228;-72
2023/07/12 04:27:07;;;;;;;12.03;6.63;;;;;;;;;;4935049;28;20184;-72
2023/07/12 04:29:32;;;;;;;6.50;5.60;;;;;;;;;;4936106;29;20204;-73
2023/07/12 04:31:57;;;;;;;7.53;6.37;;;;;;;;;;4952948;28;20219;-73
2023/07/12 04:34:22;;;;;;;9.97;6.47;;;;;;;;;;4934269;29;20267;-73
2023/07/12 04:36:48;;;;;;;7.20;6.50;;;;;;;;;;4948447;28;20220;-73
2023/07/12 04:39:13;;;;;;;6.20;5.67;;;;;;;;;;4934956;29;20184;-73
2023/07/12 04:41:38;;;;;;;7.37;6.63;;;;;;;;;;4934953;29;20186;-73
2023/07/12 04:44:03;;;;;;;6.80;5.97;;;;;;;;;;4933662;28;20240;-72
2023/07/12 04:46:28;;;;;;;7.67;6.27;;;;;;;;;;4936589;29;20246;-73
2023/07/12 04:48:54;;;;;;;9.10;5.90;;;;;;;;;;4935266;29;20255;-72
2023/07/12 04:51:19;;;;;;;7.27;6.17;;;;;;;;;;4935396;29;20233;-73
2023/07/12 04:53:47;;;;;;;8.47;6.07;;;;;;;;;;4937393;29;20260;-72
2023/07/12 04:56:13;;;;;;;6.03;5.43;;;;;;;;;;4931866;29;20205;-72
2023/07/12 04:58:38;;;;;;;7.40;6.00;;;;;;;;;;4937107;29;20214;-72
2023/07/12 05:01:03;;;;;;;7.67;5.97;;;;;;;;;;4951827;29;20256;-72
2023/07/12 05:03:28;;;;;;;7.83;6.07;;;;;;;;;;4931582;29;20215;-72
2023/07/12 05:05:56;;;;;;;7.00;5.67;;;;;;;;;;4945934;28;20212;-72
2023/07/12 05:08:21;;;;;;;7.37;6.63;;;;;;;;;;4937418;28;20213;-72
2023/07/12 05:10:46;;;;;;;10.43;6.20;;;;;;;;;;4947426;28;20185;-73
2023/07/12 05:13:12;;;;;;;6.63;5.90;;;;;;;;;;4930829;29;20212;-72
2023/07/12 05:15:37;;;;;;;5.93;5.43;;;;;;;;;;4934716;28;20213;-73
2023/07/12 05:18:02;;;;;;;9.67;6.57;;;;;;;;;;4933661;28;20222;-72
2023/07/12 05:20:27;;;;;;;6.27;5.13;;;;;;;;;;4933227;29;20177;-73
2023/07/12 05:22:53;;;;;;;5.57;4.97;;;;;;;;;;4933427;28;20189;-72
2023/07/12 05:25:18;;;;;;;7.87;5.93;;;;;;;;;;4950742;28;20233;-72
2023/07/12 05:27:43;;;;;;;6.07;5.40;;;;;;;;;;4948883;28;20205;-73
2023/07/12 05:30:09;;;;;;;10.23;6.03;;;;;;;;;;4949754;29;20190;-73
2023/07/12 05:32:34;;;;;;;6.00;5.10;;;;;;;;;;4948332;28;20190;-72
2023/07/12 05:34:59;;;;;;;6.70;5.63;;;;;;;;;;4945074;28;20313;-72
2023/07/12 05:37:25;;;;;;;6.43;5.03;;;;;;;;;;4949950;28;20186;-72
2023/07/12 05:39:50;;;;;;;6.50;5.00;;;;;;;;;;4934991;29;20186;-73
2023/07/12 05:42:15;;;;;;;5.63;4.10;;;;;;;;;;4940555;29;20236;-72
2023/07/12 05:44:40;;;;;;;7.15;4.60;;;;;;;;;;4932933;28;20182;-72
2023/07/12 05:47:06;;;;;;;4.80;4.30;;;;;;;;;;4933740;29;20265;-73
2023/07/12 05:49:31;;;;;;;5.73;4.30;;;;;;;;;;4934963;29;20173;-73
2023/07/12 05:51:56;;;;;;;9.07;4.37;;;;;;;;;;4930840;29;20217;-72
2023/07/12 05:54:21;;;;;;;5.17;4.50;;;;;;;;;;4952094;29;20174;-72
2023/07/12 05:56:46;;;;;;;4.20;3.90;;;;;;;;;;4934749;29;20186;-73
2023/07/12 05:59:12;;;;;;;3.80;3.50;;;;;;;;;;4939123;29;20194;-72
2023/07/12 06:01:37;;;;;;;4.57;4.07;;;;;;;;;;4949083;28;20247;-72
2023/07/12 06:04:02;;;;;;;5.17;3.53;;;;;;;;;;4951429;28;20174;-72
2023/07/12 06:06:28;;;;;;;5.47;4.03;;;;;;;;;;4953343;28;20248;-72
2023/07/12 06:08:53;;;;;;;7.40;4.00;;;;;;;;;;4952206;29;20223;-72
2023/07/12 06:11:18;;;;;;;6.47;4.33;;;;;;;;;;4933557;29;20178;-72
2023/07/12 06:13:43;;;;;;;6.20;4.20;;;;;;;;;;4950895;29;20226;-72
2023/07/12 06:16:08;;;;;;;6.60;4.03;;;;;;;;;;4950566;29;20186;-72
2023/07/12 06:18:34;;;;;;;4.30;3.90;;;;;;;;;;4952089;28;20191;-72
2023/07/12 06:21:00;;;;;;;4.23;3.83;;;;;;;;;;4953480;28;20188;-73
2023/07/12 06:23:25;;;;;;;5.03;4.00;;;;;;;;;;4950563;28;20310;-72
2023/07/12 06:25:51;;;;;;;3.70;3.40;;;;;;;;;;4951402;28;20310;-72
2023/07/12 06:28:16;;;;;;;4.80;3.47;;;;;;;;;;4929365;29;20183;-72
2023/07/12 06:30:41;;;;;;;4.90;3.23;;;;;;;;;;4935665;29;20183;-72
2023/07/12 06:33:07;;;;;;;4.70;3.60;;;;;;;;;;4931194;29;20211;-73
2023/07/12 06:35:32;;;;;;;3.90;3.13;;;;;;;;;;4938427;29;20265;-72
2023/07/12 06:37:57;;;;;;;3.73;3.43;;;;;;;;;;4940766;29;20179;-73
2023/07/12 06:40:22;;;;;;;4.30;3.90;;;;;;;;;;4950275;29;20214;-72
2023/07/12 06:42:48;;;;;;;5.87;3.23;;;;;;;;;;4935847;29;20183;-72
2023/07/12 06:45:13;;;;;;;3.73;3.30;;;;;;;;;;4933862;29;20204;-72
2023/07/12 06:47:38;;;;;;;4.73;3.47;;;;;;;;;;4933570;29;20184;-72
2023/07/12 06:50:04;;;;;;;4.40;3.63;;;;;;;;;;4933650;29;20179;-72
2023/07/12 06:52:29;;;;;;;4.30;3.90;;;;;;;;;;4931122;29;20211;-73
2023/07/12 06:54:54;;;;;;;3.40;3.10;;;;;;;;;;4933652;29;20228;-73
2023/07/12 06:57:20;;;;;;;3.63;3.30;;;;;;;;;;4933413;29;20187;-73
2023/07/12 06:59:45;;;;;;;3.07;2.77;;;;;;;;;;4931415;29;20231;-73
2023/07/12 07:02:10;;;;;;;8.37;3.67;;;;;;;;;;4945753;29;20181;-73
2023/07/12 07:04:35;;;;;;;4.13;3.03;;;;;;;;;;4932835;29;20226;-73
2023/07/12 07:07:00;;;;;;;4.33;3.20;;;;;;;;;;4950191;29;20233;-73
2023/07/12 07:09:26;;;;;;;4.13;3.13;;;;;;;;;;4936116;29;20262;-73
2023/07/12 07:11:51;;;;;;;4.93;3.60;;;;;;;;;;4947252;28;20193;-73
2023/07/12 07:14:16;;;;;;;4.40;3.37;;;;;;;;;;4938642;29;20200;-72
2023/07/12 07:16:42;;;;;;;4.40;2.90;;;;;;;;;;4935354;29;20215;-73
2023/07/12 07:19:07;;;;;;;6.20;3.40;;;;;;;;;;4930571;29;20181;-73
2023/07/12 07:21:32;;;;;;;4.07;3.07;;;;;;;;;;4945598;28;20272;-72
2023/07/12 07:23:58;;;;;;;5.53;3.37;;;;;;;;;;4935478;29;20219;-73
2023/07/12 07:26:23;;;;;;;4.50;3.57;;;;;;;;;;4951976;29;20240;-73
2023/07/12 07:28:48;;;;;;;3.33;3.00;;;;;;;;;;4951428;29;20199;-73
2023/07/12 07:31:13;;;;;;;5.93;3.30;;;;;;;;;;4938126;29;20270;-73
2023/07/12 07:33:39;;;;;;;3.77;3.40;;;;;;;;;;4948892;29;20173;-73
2023/07/12 07:36:06;;;;;;;3.90;3.10;;;;;;;;;;4952192;28;20185;-73
2023/07/12 07:38:31;;;;;;;3.80;2.93;;;;;;;;;;4948030;29;20288;-72
2023/07/12 07:40:56;;;;;;;4.53;2.90;;;;;;;;;;4952143;28;20268;-73
2023/07/12 07:43:22;;;;;;;6.00;3.13;;;;;;;;;;4936830;28;20184;-73
2023/07/12 07:45:47;;;;;;;3.23;2.80;;;;;;;;;;4954367;29;20196;-73
2023/07/12 07:48:12;;;;;;;3.40;3.10;;;;;;;;;;4936414;28;20212;-73
2023/07/12 07:50:38;;;;;;;5.33;2.80;;;;;;;;;;4954191;28;20222;-73
2023/07/12 07:53:04;;;;;;;5.70;2.90;;;;;;;;;;4935107;29;20236;-73
2023/07/12 07:55:30;;;;;;;3.33;2.87;;;;;;;;;;4936869;29;20219;-73
2023/07/12 07:57:55;;;;;;;6.90;3.10;;;;;;;;;;4933820;29;20271;-73
2023/07/12 08:00:20;;;;;;;4.10;3.27;;;;;;;;;;4932471;29;20182;-73
2023/07/12 08:02:46;;;;;;;5.20;3.22;;;;;;;;;;4950213;29;20184;-73
2023/07/12 08:05:12;;;;;;;4.80;2.83;;;;;;;;;;4953932;28;20220;-73
2023/07/12 08:07:38;;;;;;;4.10;3.13;;;;;;;;;;4938692;29;20174;-72
2023/07/12 08:10:04;;;;;;;5.18;2.67;;;;;;;;;;4944805;29;20169;-73
2023/07/12 08:12:29;;;;;;;4.60;3.00;;;;;;;;;;4935820;29;20225;-72
2023/07/12 08:14:54;;;;;;;5.72;2.92;;;;;;;;;;4952992;29;20174;-72
2023/07/12 08:17:20;;;;;;;9.07;3.05;;;;;;;;;;4949073;29;20188;-72
2023/07/12 08:19:50;;;;;;;3.00;2.65;;;;;;;;;;4951400;28;20249;-72
2023/07/12 08:22:16;;;;;;;3.83;2.83;;;;;;;;;;4936402;29;20204;-72
2023/07/12 08:24:42;;;;;;;3.58;2.50;;;;;;;;;;4952986;28;20312;-73
2023/07/12 08:27:09;;;;;;;3.45;2.78;;;;;;;;;;4951571;28;20304;-73
2023/07/12 08:29:35;;;;;;;5.03;3.78;;;;;;;;;;4936226;29;20212;-72
2023/07/12 08:32:00;;;;;;;4.93;3.25;;;;;;;;;;4936621;29;20192;-73
2023/07/12 08:34:26;;;;;;;4.35;3.05;;;;;;;;;;4935594;28;20223;-72
2023/07/12 08:36:51;;;;;;;4.40;2.88;;;;;;;;;;4938332;29;20185;-72
2023/07/12 08:39:16;;;;;;;6.32;2.60;;;;;;;;;;4936678;29;20277;-72
2023/07/12 08:41:41;;;;;;;7.65;3.28;;;;;;;;;;4945442;29;20185;-72
2023/07/12 08:44:11;;;;;;;5.13;3.10;;;;;;;;;;4951716;29;20193;-73
2023/07/12 08:46:38;;;;;;;3.17;2.88;;;;;;;;;;4953423;28;20271;-72
2023/07/12 08:49:04;;;;;;;3.40;2.90;;;;;;;;;;4952872;29;20177;-72
2023/07/12 08:51:31;;;;;;;3.25;2.85;;;;;;;;;;4952806;28;20217;-72
2023/07/12 08:53:56;;;;;;;3.47;2.70;;;;;;;;;;4936029;29;20278;-73
2023/07/12 08:56:22;;;;;;;8.40;2.75;;;;;;;;;;4932701;29;20213;-72
2023/07/12 08:58:51;;;;;;;4.22;2.22;;;;;;;;;;4931248;29;20186;-72
2023/07/12 09:01:27;;;;;;;4.32;2.90;;;;;;;;;;4949094;28;20181;-72
2023/07/12 09:03:52;;;;;;;4.93;2.28;;;;;;;;;;4952871;28;20189;-72
2023/07/12 09:06:17;;;;;;;4.22;3.20;;;;;;;;;;4951088;28;20209;-72
2023/07/12 09:08:45;;;;;;;4.43;3.03;;;;;;;;;;4951778;28;20181;-73
2023/07/12 09:11:19;;;;;;;5.40;3.08;;;;;;;;;;4935464;29;20178;-72
2023/07/12 09:13:46;;;;;;;3.72;3.40;;;;;;;;;;4935840;29;20193;-72
2023/07/12 09:16:28;;;;;;;3.83;3.05;;;;;;;;;;4933007;29;20209;-72
2023/07/12 09:18:55;;;;;;;3.20;2.72;;;;;;;;;;4944463;29;20184;-73
2023/07/12 09:21:22;;;;;;;2.92;2.58;;;;;;;;;;4946646;28;20188;-72
2023/07/12 09:23:47;;;;;;;4.57;2.90;;;;;;;;;;4957092;28;20173;-72
2023/07/12 09:26:20;;;;;;;4.13;2.83;;;;;;;;;;4935059;29;20243;-72
2023/07/12 09:28:45;;;;;;;4.72;2.58;;;;;;;;;;4935389;29;20182;-72
2023/07/12 09:31:16;;;;;;;8.88;3.22;;;;;;;;;;4930762;29;20192;-72
2023/07/12 09:33:43;;;;;;;4.13;2.92;;;;;;;;;;4950575;28;20185;-73
2023/07/12 09:36:14;;;;;;;4.63;3.08;;;;;;;;;;4952130;28;20207;-72
2023/07/12 09:38:39;;;;;;;2.97;2.78;;;;;;;;;;4935943;29;20225;-73
2023/07/12 09:41:09;;;;;;;3.55;3.20;;;;;;;;;;4952294;28;20217;-73
2023/07/12 09:43:37;;;;;;;3.53;3.33;;;;;;;;;;4934987;29;20257;-73
2023/07/12 09:46:05;;;;;;;6.13;3.65;;;;;;;;;;4934946;28;20217;-73
2023/07/12 09:48:40;;;;;;;5.55;4.05;;;;;;;;;;4935283;29;20190;-73
2023/07/12 09:51:23;;;;;;;3.50;3.20;;;;;;;;;;4935316;28;20180;-73
2023/07/12 09:53:52;;;;;;;4.63;3.35;;;;;;;;;;4948781;28;20197;-73
2023/07/12 09:56:20;;;;;;;7.65;4.32;;;;;;;;;;4928372;29;20209;-73
2023/07/12 09:59:08;;;;;;;6.30;3.42;;;;;;;;;;4936789;29;20182;-73
2023/07/12 10:01:48;;;;;;;6.40;3.50;;;;;;;;;;4929228;29;20197;-73
2023/07/12 10:04:29;;;;;;;3.67;3.25;;;;;;;;;;4938663;29;20185;-73
2023/07/12 10:06:55;;;;;;;6.65;3.83;;;;;;;;;;4939286;29;20209;-73
2023/07/12 10:09:29;;;;;;;5.00;3.50;;;;;;;;;;4932279;29;20173;-75
2023/07/12 10:11:55;;;;;;;5.00;3.65;;;;;;;;;;4935398;29;20177;-76
2023/07/12 10:14:25;;;;;;;5.20;4.15;;;;;;;;;;4938408;29;20177;-75
2023/07/12 10:16:54;;;;;;;4.05;3.70;;;;;;;;;;4955615;29;20181;-75
2023/07/12 10:19:22;;;;;;;3.90;3.58;;;;;;;;;;4950840;29;20178;-75
2023/07/12 10:21:52;;;;;;;4.75;3.60;;;;;;;;;;4939193;29;20293;-76
2023/07/12 10:24:18;;;;;;;5.00;3.45;;;;;;;;;;4939252;29;20186;-75
2023/07/12 10:26:43;;;;;;;6.13;4.30;;;;;;;;;;4934582;29;20238;-75
2023/07/12 10:29:09;;;;;;;4.45;3.60;;;;;;;;;;4934814;29;20241;-75
2023/07/12 10:31:43;;;;;;;6.05;3.65;;;;;;;;;;4931226;29;20178;-76
2023/07/12 10:34:17;;;;;;;6.13;4.10;;;;;;;;;;4932590;29;20221;-75
2023/07/12 10:36:43;;;;;;;4.35;3.95;;;;;;;;;;4951313;28;20205;-76
2023/07/12 10:39:09;;;;;;;7.07;3.97;;;;;;;;;;4928858;29;20237;-76
2023/07/12 10:41:44;;;;;;;5.13;4.15;;;;;;;;;;4934776;29;20182;-76
2023/07/12 10:44:15;;;;;;;5.00;4.07;;;;;;;;;;4932114;29;20188;-76
2023/07/12 10:46:42;;;;;;;5.18;3.85;;;;;;;;;;4948119;29;20202;-75
2023/07/12 10:49:15;;;;;;;4.55;3.50;;;;;;;;;;4936263;29;20228;-75
2023/07/12 10:51:42;;;;;;;4.85;3.80;;;;;;;;;;4948861;28;20205;-75
2023/07/12 10:54:26;;;;;;;4.20;3.80;;;;;;;;;;4934641;29;20194;-75
2023/07/12 10:56:52;;;;;;;5.60;4.07;;;;;;;;;;4931985;29;20189;-75
2023/07/12 10:59:32;;;;;;;4.53;3.92;;;;;;;;;;4934137;29;20214;-75
2023/07/12 11:02:04;;;;;;;5.13;3.97;;;;;;;;;;4933997;29;20236;-75
2023/07/12 11:04:47;;;;;;;7.97;4.28;;;;;;;;;;4944246;29;20183;-75
2023/07/12 11:07:14;;;;;;;4.32;3.92;;;;;;;;;;4934107;29;20289;-76
2023/07/12 11:09:45;;;;;;;5.88;4.55;;;;;;;;;;4927829;29;20179;-76
2023/07/12 11:12:30;;;;;;;4.95;4.25;;;;;;;;;;4948363;29;20189;-75
2023/07/12 11:15:14;;;;;;;6.05;4.82;;;;;;;;;;4934377;29;20194;-76
2023/07/12 11:17:50;;;;;;;4.55;4.15;;;;;;;;;;4949843;28;20233;-76
2023/07/12 11:20:23;;;;;;;6.38;4.32;;;;;;;;;;4942926;29;20246;-75
2023/07/12 11:23:17;;;;;;;5.28;4.75;;;;;;;;;;4921100;29;20185;-75
2023/07/12 11:25:48;;;;;;;5.95;4.43;;;;;;;;;;4937454;29;20237;-75
2023/07/12 11:28:20;;;;;;;5.97;4.35;;;;;;;;;;4937446;29;20188;-76
2023/07/12 11:30:45;;;;;;;8.10;4.18;;;;;;;;;;4949540;28;20178;-76
2023/07/12 11:33:16;;;;;;;7.00;4.55;;;;;;;;;;4936219;29;20201;-76
2023/07/12 11:35:43;;;;;;;5.60;4.55;;;;;;;;;;4954251;28;20177;-75
2023/07/12 11:38:18;;;;;;;5.97;4.95;;;;;;;;;;4950137;28;20181;-76
2023/07/12 11:40:46;;;;;;;13.30;5.82;;;;;;;;;;4954330;28;20177;-76
2023/07/12 11:43:18;;;;;;;7.85;4.90;;;;;;;;;;4936790;29;20276;-76
2023/07/12 11:45:44;;;;;;;4.60;4.15;;;;;;;;;;4937273;29;20205;-76
2023/07/12 11:48:12;;;;;;;7.60;4.97;;;;;;;;;;4954051;29;20278;-76
2023/07/12 11:50:38;;;;;;;6.53;4.10;;;;;;;;;;4937131;29;20237;-79
2023/07/12 11:53:03;;;;;;;4.75;4.10;;;;;;;;;;4946457;28;20178;-77
2023/07/12 11:55:30;;;;;;;5.28;4.80;;;;;;;;;;4938773;28;20186;-74
2023/07/12 11:57:55;;;;;;;5.05;4.28;;;;;;;;;;4935294;28;20232;-74
2023/07/12 12:00:24;;;;;;;6.97;5.35;;;;;;;;;;4933218;29;20190;-75
2023/07/12 12:02:51;;;;;;;5.85;4.38;;;;;;;;;;4949922;28;20189;-75
2023/07/12 12:05:20;;;;;;;4.93;4.45;;;;;;;;;;4935772;28;20271;-75
2023/07/12 12:07:46;;;;;;;5.25;4.60;;;;;;;;;;4953344;28;20181;-75
2023/07/12 12:10:32;;;;;;;5.38;4.47;;;;;;;;;;4960380;28;20195;-75
2023/07/12 12:12:58;;;;;;;5.47;4.32;;;;;;;;;;4951687;28;20209;-74
2023/07/12 12:15:24;;;;;;;4.40;4.00;;;;;;;;;;4944741;29;20216;-75
2023/07/12 12:17:51;;;;;;;4.88;4.32;;;;;;;;;;4951151;28;20194;-75
2023/07/12 12:20:23;;;;;;;4.85;4.20;;;;;;;;;;4936796;29;20177;-74
2023/07/12 12:23:04;;;;;;;4.40;3.95;;;;;;;;;;4949546;28;20186;-75
2023/07/12 12:25:30;;;;;;;6.07;4.68;;;;;;;;;;4943847;28;20254;-75
2023/07/12 12:27:55;;;;;;;4.90;4.38;;;;;;;;;;4941564;29;20173;-75
2023/07/12 12:30:22;;;;;;;4.63;4.05;;;;;;;;;;4935975;29;20221;-75
2023/07/12 12:33:04;;;;;;;5.93;4.55;;;;;;;;;;4949122;28;20220;-75
2023/07/12 12:35:30;;;;;;;6.35;4.15;;;;;;;;;;4949920;29;20193;-75
2023/07/12 12:37:56;;;;;;;6.68;3.67;;;;;;;;;;4935352;28;20199;-74
2023/07/12 12:40:21;;;;;;;4.20;3.85;;;;;;;;;;4934737;29;20182;-75
2023/07/12 12:42:59;;;;;;;7.05;3.85;;;;;;;;;;4936654;29;20197;-75
2023/07/12 12:45:26;;;;;;;5.32;4.03;;;;;;;;;;4941533;29;20284;-75
2023/07/12 12:47:52;;;;;;;4.18;3.78;;;;;;;;;;4936274;29;20260;-75
2023/07/12 12:50:19;;;;;;;4.13;3.72;;;;;;;;;;4929006;28;20190;-75
2023/07/12 12:52:44;;;;;;;4.00;3.42;;;;;;;;;;4947373;28;20270;-75
2023/07/12 12:55:10;;;;;;;6.93;3.55;;;;;;;;;;4952348;28;20186;-75
2023/07/12 12:57:36;;;;;;;4.35;3.88;;;;;;;;;;4933124;29;20174;-75
2023/07/12 13:00:03;;;;;;;4.45;3.63;;;;;;;;;;4950322;29;20252;-75
2023/07/12 13:02:28;;;;;;;5.95;3.70;;;;;;;;;;4935185;29;20280;-75
2023/07/12 13:04:53;;;;;;;4.93;3.30;;;;;;;;;;4934138;29;20278;-75
2023/07/12 13:07:27;;;;;;;6.75;3.20;;;;;;;;;;4949967;28;20213;-75
2023/07/12 13:09:52;;;;;;;4.80;4.10;;;;;;;;;;4934269;29;20245;-75
2023/07/12 13:12:21;;;;;;;5.65;3.63;;;;;;;;;;4947389;28;20296;-75
2023/07/12 13:14:47;;;;;;;4.05;3.33;;;;;;;;;;4951277;28;20205;-75
2023/07/12 13:17:14;;;;;;;3.95;3.38;;;;;;;;;;4933105;29;20178;-75
2023/07/12 13:19:39;;;;;;;4.18;3.58;;;;;;;;;;4931555;29;20224;-75
2023/07/12 13:22:04;;;;;;;6.72;4.22;;;;;;;;;;4952191;29;20217;-75
2023/07/12 13:24:29;;;;;;;5.55;3.92;;;;;;;;;;4936344;29;20307;-75
2023/07/12 13:26:55;;;;;;;5.32;3.40;;;;;;;;;;4935510;29;20255;-74
2023/07/12 13:29:20;;;;;;;4.93;3.35;;;;;;;;;;4931705;29;20190;-75
2023/07/12 13:31:45;;;;;;;3.78;3.47;;;;;;;;;;4942905;29;20178;-75
2023/07/12 13:34:10;;;;;;;4.82;3.20;;;;;;;;;;4932672;28;20185;-75
2023/07/12 13:36:36;;;;;;;5.53;3.78;;;;;;;;;;4942404;28;20189;-75
2023/07/12 13:39:12;;;;;;;3.38;2.83;;;;;;;;;;4950664;28;20247;-75
2023/07/12 13:41:37;;;;;;;4.45;4.05;;;;;;;;;;4937528;29;20191;-75
2023/07/12 13:44:03;;;;;;;4.93;3.63;;;;;;;;;;4953568;28;20186;-75
2023/07/12 13:46:28;;;;;;;3.60;3.00;;;;;;;;;;4939248;29;20208;-75
2023/07/12 13:48:54;;;;;;;4.97;3.47;;;;;;;;;;4952637;28;20181;-75
2023/07/12 13:51:23;;;;;;;4.22;3.30;;;;;;;;;;4937427;28;20203;-74
2023/07/12 13:53:49;;;;;;;6.57;3.47;;;;;;;;;;4934198;29;20185;-75
2023/07/12 13:56:14;;;;;;;4.20;3.47;;;;;;;;;;4937131;28;20189;-75
2023/07/12 13:58:39;;;;;;;4.53;3.20;;;;;;;;;;4935326;28;20189;-75
2023/07/12 14:01:05;;;;;;;4.75;3.05;;;;;;;;;;4934833;28;20221;-75
2023/07/12 14:03:30;;;;;;;3.92;3.40;;;;;;;;;;4951611;28;20264;-74
2023/07/12 14:05:55;;;;;;;5.40;3.50;;;;;;;;;;4943402;28;20210;-75
2023/07/12 14:08:21;;;;;;;4.80;3.42;;;;;;;;;;4935588;28;20185;-75
2023/07/12 14:10:46;;;;;;;5.22;3.40;;;;;;;;;;4938933;29;20184;-75
2023/07/12 14:13:22;;;;;;;3.38;2.67;;;;;;;;;;4932763;29;20281;-75
2023/07/12 14:15:48;;;;;;;6.32;3.42;;;;;;;;;;4949969;28;20182;-75
2023/07/12 14:18:13;;;;;;;4.97;3.08;;;;;;;;;;4936502;29;20264;-75
2023/07/12 14:20:38;;;;;;;3.38;3.00;;;;;;;;;;4950238;28;20216;-74
2023/07/12 14:23:11;;;;;;;3.00;2.55;;;;;;;;;;4934648;29;20272;-75
2023/07/12 14:25:37;;;;;;;2.92;2.63;;;;;;;;;;4950736;28;20244;-74
2023/07/12 14:28:03;;;;;;;5.45;2.85;;;;;;;;;;4950235;28;20178;-74
2023/07/12 14:30:29;;;;;;;3.42;2.85;;;;;;;;;;4935854;28;20181;-74
2023/07/12 14:32:54;;;;;;;5.97;2.85;;;;;;;;;;4951243;28;20182;-74
2023/07/12 14:35:21;;;;;;;3.63;2.88;;;;;;;;;;4951348;28;20174;-74
2023/07/12 14:37:46;;;;;;;4.38;3.00;;;;;;;;;;4938547;29;20178;-74
2023/07/12 14:40:15;;;;;;;5.03;3.10;;;;;;;;;;4935279;29;20181;-74
2023/07/12 14:42:41;;;;;;;5.15;2.75;;;;;;;;;;4935037;29;20174;-74